sensor_id;sensor_type;location;lat;lon;timestamp;P1;durP1;ratioP1;P2;durP2;ratioP2
18280;SDS011;9266;51.132;17.062;2022-08-21T00:00:08;22.47;;;20.07;;
18280;SDS011;9266;51.132;17.062;2022-08-21T00:02:43;26.23;;;21.53;;
18280;SDS011;9266;51.132;17.062;2022-08-21T00:05:12;27.53;;;23.37;;
18280;SDS011;9266;51.132;17.062;2022-08-21T00:07:40;27.40;;;23.13;;
18280;SDS011;9266;51.132;17.062;2022-08-21T00:10:08;28.63;;;23.67;;
18280;SDS011;9266;51.132;17.062;2022-08-21T00:12:36;29.03;;;24.17;;
18280;SDS011;9266;51.132;17.062;2022-08-21T00:15:04;34.13;;;26.87;;
18280;SDS011;9266;51.132;17.062;2022-08-21T00:17:32;33.73;;;27.37;;
18280;SDS011;9266;51.132;17.062;2022-08-21T00:19:59;34.43;;;26.73;;
18280;SDS011;9266;51.132;17.062;2022-08-21T00:22:26;38.60;;;28.40;;
18280;SDS011;9266;51.132;17.062;2022-08-21T00:24:54;37.53;;;26.87;;
18280;SDS011;9266;51.132;17.062;2022-08-21T00:27:21;34.20;;;26.83;;
18280;SDS011;9266;51.132;17.062;2022-08-21T00:29:48;34.70;;;26.30;;
18280;SDS011;9266;51.132;17.062;2022-08-21T00:32:19;32.63;;;25.93;;
18280;SDS011;9266;51.132;17.062;2022-08-21T00:34:47;34.30;;;27.03;;
18280;SDS011;9266;51.132;17.062;2022-08-21T00:37:14;33.93;;;25.20;;
18280;SDS011;9266;51.132;17.062;2022-08-21T00:39:41;33.03;;;25.63;;
18280;SDS011;9266;51.132;17.062;2022-08-21T00:42:10;32.57;;;23.60;;
18280;SDS011;9266;51.132;17.062;2022-08-21T00:44:39;32.27;;;24.07;;
18280;SDS011;9266;51.132;17.062;2022-08-21T00:47:09;31.87;;;23.77;;
18280;SDS011;9266;51.132;17.062;2022-08-21T00:49:36;27.63;;;22.50;;
18280;SDS011;9266;51.132;17.062;2022-08-21T00:52:05;29.77;;;23.33;;
18280;SDS011;9266;51.132;17.062;2022-08-21T00:54:36;32.80;;;23.77;;
18280;SDS011;9266;51.132;17.062;2022-08-21T00:57:07;33.13;;;24.40;;
18280;SDS011;9266;51.132;17.062;2022-08-21T00:59:39;29.77;;;23.27;;
18280;SDS011;9266;51.132;17.062;2022-08-21T01:02:09;28.63;;;22.47;;
18280;SDS011;9266;51.132;17.062;2022-08-21T01:04:36;29.90;;;21.67;;
18280;SDS011;9266;51.132;17.062;2022-08-21T01:07:04;29.00;;;21.30;;
18280;SDS011;9266;51.132;17.062;2022-08-21T01:09:32;28.07;;;21.07;;
18280;SDS011;9266;51.132;17.062;2022-08-21T01:11:59;28.17;;;21.10;;
18280;SDS011;9266;51.132;17.062;2022-08-21T01:14:26;28.30;;;21.27;;
18280;SDS011;9266;51.132;17.062;2022-08-21T01:16:55;28.97;;;21.63;;
18280;SDS011;9266;51.132;17.062;2022-08-21T01:19:24;27.33;;;21.73;;
18280;SDS011;9266;51.132;17.062;2022-08-21T01:21:53;27.10;;;19.97;;
18280;SDS011;9266;51.132;17.062;2022-08-21T01:24:23;27.37;;;20.63;;
18280;SDS011;9266;51.132;17.062;2022-08-21T01:26:51;27.97;;;20.07;;
18280;SDS011;9266;51.132;17.062;2022-08-21T01:29:22;25.67;;;18.60;;
18280;SDS011;9266;51.132;17.062;2022-08-21T01:31:56;24.00;;;18.33;;
18280;SDS011;9266;51.132;17.062;2022-08-21T01:34:24;25.37;;;17.80;;
18280;SDS011;9266;51.132;17.062;2022-08-21T01:36:51;21.80;;;17.83;;
18280;SDS011;9266;51.132;17.062;2022-08-21T01:39:20;24.07;;;18.53;;
18280;SDS011;9266;51.132;17.062;2022-08-21T01:41:47;24.80;;;19.20;;
18280;SDS011;9266;51.132;17.062;2022-08-21T01:44:14;22.87;;;18.27;;
18280;SDS011;9266;51.132;17.062;2022-08-21T01:46:41;22.77;;;17.83;;
18280;SDS011;9266;51.132;17.062;2022-08-21T01:49:08;22.50;;;17.27;;
18280;SDS011;9266;51.132;17.062;2022-08-21T01:51:35;22.47;;;18.20;;
18280;SDS011;9266;51.132;17.062;2022-08-21T01:54:05;22.13;;;18.27;;
18280;SDS011;9266;51.132;17.062;2022-08-21T01:56:40;20.57;;;15.97;;
18280;SDS011;9266;51.132;17.062;2022-08-21T01:59:10;20.70;;;16.77;;
18280;SDS011;9266;51.132;17.062;2022-08-21T02:01:37;22.13;;;17.03;;
18280;SDS011;9266;51.132;17.062;2022-08-21T02:04:05;20.40;;;16.27;;
18280;SDS011;9266;51.132;17.062;2022-08-21T02:06:32;20.13;;;16.90;;
18280;SDS011;9266;51.132;17.062;2022-08-21T02:09:00;22.50;;;17.93;;
18280;SDS011;9266;51.132;17.062;2022-08-21T02:11:27;21.30;;;17.20;;
18280;SDS011;9266;51.132;17.062;2022-08-21T02:13:55;19.73;;;15.53;;
18280;SDS011;9266;51.132;17.062;2022-08-21T02:16:22;19.00;;;14.80;;
18280;SDS011;9266;51.132;17.062;2022-08-21T02:18:50;17.00;;;15.10;;
18280;SDS011;9266;51.132;17.062;2022-08-21T02:21:17;17.10;;;13.17;;
18280;SDS011;9266;51.132;17.062;2022-08-21T02:23:45;13.77;;;12.33;;
18280;SDS011;9266;51.132;17.062;2022-08-21T02:26:12;14.33;;;12.47;;
18280;SDS011;9266;51.132;17.062;2022-08-21T02:28:39;14.53;;;12.90;;
18280;SDS011;9266;51.132;17.062;2022-08-21T02:31:08;13.93;;;11.97;;
18280;SDS011;9266;51.132;17.062;2022-08-21T02:33:36;14.67;;;10.77;;
18280;SDS011;9266;51.132;17.062;2022-08-21T02:36:04;10.17;;;8.80;;
18280;SDS011;9266;51.132;17.062;2022-08-21T02:38:32;10.37;;;9.27;;
18280;SDS011;9266;51.132;17.062;2022-08-21T02:41:03;10.63;;;8.80;;
18280;SDS011;9266;51.132;17.062;2022-08-21T02:43:30;9.80;;;8.80;;
18280;SDS011;9266;51.132;17.062;2022-08-21T02:45:57;8.93;;;8.07;;
18280;SDS011;9266;51.132;17.062;2022-08-21T02:48:27;8.27;;;7.47;;
18280;SDS011;9266;51.132;17.062;2022-08-21T02:50:56;7.80;;;7.00;;
18280;SDS011;9266;51.132;17.062;2022-08-21T02:53:25;7.47;;;6.80;;
18280;SDS011;9266;51.132;17.062;2022-08-21T02:55:53;7.90;;;7.10;;
18280;SDS011;9266;51.132;17.062;2022-08-21T02:58:21;7.80;;;7.03;;
18280;SDS011;9266;51.132;17.062;2022-08-21T03:00:51;7.53;;;6.83;;
18280;SDS011;9266;51.132;17.062;2022-08-21T03:03:18;8.13;;;7.33;;
18280;SDS011;9266;51.132;17.062;2022-08-21T03:05:47;6.13;;;5.53;;
18280;SDS011;9266;51.132;17.062;2022-08-21T03:08:15;6.30;;;5.57;;
18280;SDS011;9266;51.132;17.062;2022-08-21T03:10:43;6.47;;;5.87;;
18280;SDS011;9266;51.132;17.062;2022-08-21T03:13:11;6.63;;;5.97;;
18280;SDS011;9266;51.132;17.062;2022-08-21T03:15:39;6.70;;;6.10;;
18280;SDS011;9266;51.132;17.062;2022-08-21T03:18:06;6.07;;;5.43;;
18280;SDS011;9266;51.132;17.062;2022-08-21T03:20:35;6.30;;;5.70;;
18280;SDS011;9266;51.132;17.062;2022-08-21T03:23:05;5.93;;;5.40;;
18280;SDS011;9266;51.132;17.062;2022-08-21T03:25:33;6.40;;;5.80;;
18280;SDS011;9266;51.132;17.062;2022-08-21T03:28:01;6.70;;;6.03;;
18280;SDS011;9266;51.132;17.062;2022-08-21T03:30:30;6.90;;;6.30;;
18280;SDS011;9266;51.132;17.062;2022-08-21T03:32:57;7.40;;;6.70;;
18280;SDS011;9266;51.132;17.062;2022-08-21T03:35:24;7.40;;;6.60;;
18280;SDS011;9266;51.132;17.062;2022-08-21T03:37:52;7.60;;;6.90;;
18280;SDS011;9266;51.132;17.062;2022-08-21T03:40:23;7.43;;;6.73;;
18280;SDS011;9266;51.132;17.062;2022-08-21T03:42:51;7.53;;;6.80;;
18280;SDS011;9266;51.132;17.062;2022-08-21T03:45:21;8.13;;;6.63;;
18280;SDS011;9266;51.132;17.062;2022-08-21T03:47:50;7.40;;;6.70;;
18280;SDS011;9266;51.132;17.062;2022-08-21T03:50:22;7.77;;;7.03;;
18280;SDS011;9266;51.132;17.062;2022-08-21T03:52:50;8.33;;;7.53;;
18280;SDS011;9266;51.132;17.062;2022-08-21T03:55:17;8.63;;;7.73;;
18280;SDS011;9266;51.132;17.062;2022-08-21T03:57:46;8.50;;;7.63;;
18280;SDS011;9266;51.132;17.062;2022-08-21T04:00:14;9.00;;;8.10;;
18280;SDS011;9266;51.132;17.062;2022-08-21T04:02:43;9.47;;;8.57;;
18280;SDS011;9266;51.132;17.062;2022-08-21T04:05:11;11.07;;;9.63;;
18280;SDS011;9266;51.132;17.062;2022-08-21T04:07:39;9.50;;;8.60;;
18280;SDS011;9266;51.132;17.062;2022-08-21T04:10:07;8.60;;;7.80;;
18280;SDS011;9266;51.132;17.062;2022-08-21T04:12:34;9.57;;;8.60;;
18280;SDS011;9266;51.132;17.062;2022-08-21T04:15:03;9.77;;;8.87;;
18280;SDS011;9266;51.132;17.062;2022-08-21T04:17:30;9.60;;;8.60;;
18280;SDS011;9266;51.132;17.062;2022-08-21T04:20:01;10.60;;;9.60;;
18280;SDS011;9266;51.132;17.062;2022-08-21T04:22:28;9.73;;;8.73;;
18280;SDS011;9266;51.132;17.062;2022-08-21T04:24:55;10.70;;;9.03;;
18280;SDS011;9266;51.132;17.062;2022-08-21T04:27:22;10.27;;;9.27;;
18280;SDS011;9266;51.132;17.062;2022-08-21T04:29:49;9.70;;;8.80;;
18280;SDS011;9266;51.132;17.062;2022-08-21T04:32:22;9.30;;;8.40;;
18280;SDS011;9266;51.132;17.062;2022-08-21T04:34:57;9.30;;;8.40;;
18280;SDS011;9266;51.132;17.062;2022-08-21T04:37:25;9.50;;;8.60;;
18280;SDS011;9266;51.132;17.062;2022-08-21T04:39:52;8.87;;;8.07;;
18280;SDS011;9266;51.132;17.062;2022-08-21T04:42:21;9.13;;;8.23;;
18280;SDS011;9266;51.132;17.062;2022-08-21T04:44:48;9.77;;;8.87;;
18280;SDS011;9266;51.132;17.062;2022-08-21T04:47:16;9.03;;;8.13;;
18280;SDS011;9266;51.132;17.062;2022-08-21T04:49:46;8.50;;;7.70;;
18280;SDS011;9266;51.132;17.062;2022-08-21T04:52:13;8.63;;;7.83;;
18280;SDS011;9266;51.132;17.062;2022-08-21T04:54:44;9.20;;;8.30;;
18280;SDS011;9266;51.132;17.062;2022-08-21T04:57:12;8.13;;;7.43;;
18280;SDS011;9266;51.132;17.062;2022-08-21T04:59:42;8.63;;;7.73;;
18280;SDS011;9266;51.132;17.062;2022-08-21T05:02:11;9.03;;;8.13;;
18280;SDS011;9266;51.132;17.062;2022-08-21T05:04:41;10.63;;;8.50;;
18280;SDS011;9266;51.132;17.062;2022-08-21T05:07:12;8.23;;;7.50;;
18280;SDS011;9266;51.132;17.062;2022-08-21T05:09:43;8.80;;;8.00;;
18280;SDS011;9266;51.132;17.062;2022-08-21T05:12:10;8.90;;;7.97;;
18280;SDS011;9266;51.132;17.062;2022-08-21T05:14:37;9.30;;;8.13;;
18280;SDS011;9266;51.132;17.062;2022-08-21T05:17:04;8.40;;;7.60;;
18280;SDS011;9266;51.132;17.062;2022-08-21T05:19:31;8.03;;;7.33;;
18280;SDS011;9266;51.132;17.062;2022-08-21T05:21:58;7.87;;;7.17;;
18280;SDS011;9266;51.132;17.062;2022-08-21T05:24:27;7.60;;;6.90;;
18280;SDS011;9266;51.132;17.062;2022-08-21T05:26:54;6.40;;;5.80;;
18280;SDS011;9266;51.132;17.062;2022-08-21T05:29:21;5.93;;;5.33;;
18280;SDS011;9266;51.132;17.062;2022-08-21T05:31:48;6.33;;;5.83;;
18280;SDS011;9266;51.132;17.062;2022-08-21T05:34:17;6.43;;;5.80;;
18280;SDS011;9266;51.132;17.062;2022-08-21T05:36:46;6.33;;;5.83;;
18280;SDS011;9266;51.132;17.062;2022-08-21T05:39:13;6.60;;;6.00;;
18280;SDS011;9266;51.132;17.062;2022-08-21T05:41:41;6.70;;;6.10;;
18280;SDS011;9266;51.132;17.062;2022-08-21T05:44:08;6.23;;;5.73;;
18280;SDS011;9266;51.132;17.062;2022-08-21T05:46:35;6.50;;;5.90;;
18280;SDS011;9266;51.132;17.062;2022-08-21T05:49:02;6.63;;;5.93;;
18280;SDS011;9266;51.132;17.062;2022-08-21T05:51:29;7.10;;;6.40;;
18280;SDS011;9266;51.132;17.062;2022-08-21T05:53:59;6.40;;;5.73;;
18280;SDS011;9266;51.132;17.062;2022-08-21T05:56:25;5.87;;;5.37;;
18280;SDS011;9266;51.132;17.062;2022-08-21T05:58:54;6.20;;;5.60;;
18280;SDS011;9266;51.132;17.062;2022-08-21T06:01:21;6.13;;;5.47;;
18280;SDS011;9266;51.132;17.062;2022-08-21T06:03:48;6.20;;;5.70;;
18280;SDS011;9266;51.132;17.062;2022-08-21T06:06:15;6.83;;;5.33;;
18280;SDS011;9266;51.132;17.062;2022-08-21T06:08:42;6.37;;;5.57;;
18280;SDS011;9266;51.132;17.062;2022-08-21T06:11:10;7.30;;;6.20;;
18280;SDS011;9266;51.132;17.062;2022-08-21T06:13:40;6.17;;;5.57;;
18280;SDS011;9266;51.132;17.062;2022-08-21T06:16:09;6.40;;;5.80;;
18280;SDS011;9266;51.132;17.062;2022-08-21T06:18:38;7.23;;;5.90;;
18280;SDS011;9266;51.132;17.062;2022-08-21T06:21:06;5.73;;;5.23;;
18280;SDS011;9266;51.132;17.062;2022-08-21T06:23:34;10.90;;;6.47;;
18280;SDS011;9266;51.132;17.062;2022-08-21T06:26:02;6.77;;;6.13;;
18280;SDS011;9266;51.132;17.062;2022-08-21T06:28:30;6.80;;;6.20;;
18280;SDS011;9266;51.132;17.062;2022-08-21T06:30:58;7.50;;;6.80;;
18280;SDS011;9266;51.132;17.062;2022-08-21T06:33:26;6.80;;;6.10;;
18280;SDS011;9266;51.132;17.062;2022-08-21T06:35:53;6.97;;;6.37;;
18280;SDS011;9266;51.132;17.062;2022-08-21T06:38:20;6.87;;;6.27;;
18280;SDS011;9266;51.132;17.062;2022-08-21T06:40:47;7.53;;;6.83;;
18280;SDS011;9266;51.132;17.062;2022-08-21T06:43:15;7.53;;;6.73;;
18280;SDS011;9266;51.132;17.062;2022-08-21T06:45:43;11.20;;;7.03;;
18280;SDS011;9266;51.132;17.062;2022-08-21T06:48:10;7.10;;;6.50;;
18280;SDS011;9266;51.132;17.062;2022-08-21T06:50:39;8.23;;;7.17;;
18280;SDS011;9266;51.132;17.062;2022-08-21T06:53:15;7.87;;;7.07;;
18280;SDS011;9266;51.132;17.062;2022-08-21T06:55:47;7.50;;;6.70;;
18280;SDS011;9266;51.132;17.062;2022-08-21T06:58:14;8.67;;;7.47;;
18280;SDS011;9266;51.132;17.062;2022-08-21T07:00:47;8.57;;;7.47;;
18280;SDS011;9266;51.132;17.062;2022-08-21T07:03:21;11.00;;;8.13;;
18280;SDS011;9266;51.132;17.062;2022-08-21T07:05:51;9.70;;;8.80;;
18280;SDS011;9266;51.132;17.062;2022-08-21T07:08:21;12.13;;;9.50;;
18280;SDS011;9266;51.132;17.062;2022-08-21T07:10:48;12.90;;;9.83;;
18280;SDS011;9266;51.132;17.062;2022-08-21T07:13:15;10.80;;;9.70;;
18280;SDS011;9266;51.132;17.062;2022-08-21T07:15:43;10.10;;;8.93;;
18280;SDS011;9266;51.132;17.062;2022-08-21T07:18:12;12.47;;;9.40;;
18280;SDS011;9266;51.132;17.062;2022-08-21T07:20:42;10.77;;;9.77;;
18280;SDS011;9266;51.132;17.062;2022-08-21T07:23:12;10.50;;;9.43;;
18280;SDS011;9266;51.132;17.062;2022-08-21T07:25:45;10.37;;;8.67;;
18280;SDS011;9266;51.132;17.062;2022-08-21T07:28:12;11.47;;;8.53;;
18280;SDS011;9266;51.132;17.062;2022-08-21T07:30:39;12.20;;;9.10;;
18280;SDS011;9266;51.132;17.062;2022-08-21T07:33:06;11.37;;;10.23;;
18280;SDS011;9266;51.132;17.062;2022-08-21T07:38:53;11.43;;;9.70;;
18280;SDS011;9266;51.132;17.062;2022-08-21T07:41:24;11.43;;;10.30;;
18280;SDS011;9266;51.132;17.062;2022-08-21T07:46:29;14.63;;;8.07;;
18280;SDS011;9266;51.132;17.062;2022-08-21T07:48:56;12.70;;;9.27;;
18280;SDS011;9266;51.132;17.062;2022-08-21T07:51:24;11.43;;;8.83;;
18280;SDS011;9266;51.132;17.062;2022-08-21T07:53:55;12.30;;;8.67;;
18280;SDS011;9266;51.132;17.062;2022-08-21T07:56:24;15.60;;;9.90;;
18280;SDS011;9266;51.132;17.062;2022-08-21T07:58:51;11.83;;;9.77;;
18280;SDS011;9266;51.132;17.062;2022-08-21T08:01:22;9.90;;;8.90;;
18280;SDS011;9266;51.132;17.062;2022-08-21T08:03:52;11.53;;;9.43;;
18280;SDS011;9266;51.132;17.062;2022-08-21T08:06:22;12.73;;;9.17;;
18280;SDS011;9266;51.132;17.062;2022-08-21T08:08:55;10.60;;;9.03;;
18280;SDS011;9266;51.132;17.062;2022-08-21T08:11:22;10.83;;;8.67;;
18280;SDS011;9266;51.132;17.062;2022-08-21T08:13:52;10.60;;;8.23;;
18280;SDS011;9266;51.132;17.062;2022-08-21T08:16:20;8.67;;;7.80;;
18280;SDS011;9266;51.132;17.062;2022-08-21T08:18:50;8.80;;;7.90;;
18280;SDS011;9266;51.132;17.062;2022-08-21T08:21:20;9.33;;;8.43;;
18280;SDS011;9266;51.132;17.062;2022-08-21T08:23:48;9.03;;;8.13;;
18280;SDS011;9266;51.132;17.062;2022-08-21T08:26:18;10.07;;;8.20;;
18280;SDS011;9266;51.132;17.062;2022-08-21T08:28:48;9.40;;;8.50;;
18280;SDS011;9266;51.132;17.062;2022-08-21T08:31:15;9.03;;;8.13;;
18280;SDS011;9266;51.132;17.062;2022-08-21T08:33:46;10.00;;;8.90;;
18280;SDS011;9266;51.132;17.062;2022-08-21T08:36:14;8.63;;;7.83;;
18280;SDS011;9266;51.132;17.062;2022-08-21T08:38:49;8.27;;;6.80;;
18280;SDS011;9266;51.132;17.062;2022-08-21T08:41:18;8.90;;;7.97;;
18280;SDS011;9266;51.132;17.062;2022-08-21T08:43:49;8.33;;;7.47;;
18280;SDS011;9266;51.132;17.062;2022-08-21T08:46:21;8.20;;;7.23;;
18280;SDS011;9266;51.132;17.062;2022-08-21T08:48:57;8.20;;;6.87;;
18280;SDS011;9266;51.132;17.062;2022-08-21T08:51:34;7.37;;;6.67;;
18280;SDS011;9266;51.132;17.062;2022-08-21T08:54:09;7.43;;;6.57;;
18280;SDS011;9266;51.132;17.062;2022-08-21T08:56:41;8.20;;;7.40;;
18280;SDS011;9266;51.132;17.062;2022-08-21T08:59:13;7.53;;;6.83;;
18280;SDS011;9266;51.132;17.062;2022-08-21T09:01:42;7.83;;;7.10;;
18280;SDS011;9266;51.132;17.062;2022-08-21T09:04:09;7.17;;;6.43;;
18280;SDS011;9266;51.132;17.062;2022-08-21T09:06:44;6.57;;;5.97;;
18280;SDS011;9266;51.132;17.062;2022-08-21T09:09:22;6.70;;;6.00;;
18280;SDS011;9266;51.132;17.062;2022-08-21T09:11:59;7.10;;;6.23;;
18280;SDS011;9266;51.132;17.062;2022-08-21T09:14:37;7.07;;;5.60;;
18280;SDS011;9266;51.132;17.062;2022-08-21T09:17:25;5.73;;;5.17;;
18280;SDS011;9266;51.132;17.062;2022-08-21T09:20:21;5.40;;;4.73;;
18280;SDS011;9266;51.132;17.062;2022-08-21T09:23:00;5.43;;;4.90;;
18280;SDS011;9266;51.132;17.062;2022-08-21T09:25:38;4.87;;;4.47;;
18280;SDS011;9266;51.132;17.062;2022-08-21T09:28:12;4.93;;;4.53;;
18280;SDS011;9266;51.132;17.062;2022-08-21T09:30:40;5.33;;;4.63;;
18280;SDS011;9266;51.132;17.062;2022-08-21T09:33:11;5.00;;;4.50;;
18280;SDS011;9266;51.132;17.062;2022-08-21T09:35:48;5.20;;;4.60;;
18280;SDS011;9266;51.132;17.062;2022-08-21T09:38:30;6.70;;;5.60;;
18280;SDS011;9266;51.132;17.062;2022-08-21T09:41:13;6.00;;;4.97;;
18280;SDS011;9266;51.132;17.062;2022-08-21T09:43:51;7.07;;;5.33;;
18280;SDS011;9266;51.132;17.062;2022-08-21T09:46:27;6.83;;;4.93;;
18280;SDS011;9266;51.132;17.062;2022-08-21T09:48:57;6.70;;;4.87;;
18280;SDS011;9266;51.132;17.062;2022-08-21T09:51:27;5.30;;;4.80;;
18280;SDS011;9266;51.132;17.062;2022-08-21T09:53:58;5.37;;;4.70;;
18280;SDS011;9266;51.132;17.062;2022-08-21T09:56:39;7.87;;;4.60;;
18280;SDS011;9266;51.132;17.062;2022-08-21T09:59:37;4.70;;;4.20;;
18280;SDS011;9266;51.132;17.062;2022-08-21T10:02:16;5.60;;;4.10;;
18280;SDS011;9266;51.132;17.062;2022-08-21T10:04:53;4.97;;;3.73;;
18280;SDS011;9266;51.132;17.062;2022-08-21T10:07:25;6.13;;;3.93;;
18280;SDS011;9266;51.132;17.062;2022-08-21T10:10:03;4.83;;;3.93;;
18280;SDS011;9266;51.132;17.062;2022-08-21T10:12:42;4.63;;;3.80;;
18280;SDS011;9266;51.132;17.062;2022-08-21T10:15:19;4.13;;;3.70;;
18280;SDS011;9266;51.132;17.062;2022-08-21T10:17:54;5.20;;;3.70;;
18280;SDS011;9266;51.132;17.062;2022-08-21T10:20:32;5.77;;;4.10;;
18280;SDS011;9266;51.132;17.062;2022-08-21T10:23:27;4.23;;;3.83;;
18280;SDS011;9266;51.132;17.062;2022-08-21T10:26:03;5.37;;;3.70;;
18280;SDS011;9266;51.132;17.062;2022-08-21T10:28:36;7.03;;;4.03;;
18280;SDS011;9266;51.132;17.062;2022-08-21T10:31:13;6.40;;;4.40;;
18280;SDS011;9266;51.132;17.062;2022-08-21T10:33:52;6.70;;;4.20;;
18280;SDS011;9266;51.132;17.062;2022-08-21T10:36:35;6.17;;;3.90;;
18280;SDS011;9266;51.132;17.062;2022-08-21T10:39:20;5.77;;;4.10;;
18280;SDS011;9266;51.132;17.062;2022-08-21T10:42:13;5.10;;;4.07;;
18280;SDS011;9266;51.132;17.062;2022-08-21T10:44:55;4.90;;;3.50;;
18280;SDS011;9266;51.132;17.062;2022-08-21T10:47:36;3.90;;;3.47;;
18280;SDS011;9266;51.132;17.062;2022-08-21T10:50:30;4.33;;;3.67;;
18280;SDS011;9266;51.132;17.062;2022-08-21T10:53:14;5.97;;;3.80;;
18280;SDS011;9266;51.132;17.062;2022-08-21T10:56:16;5.27;;;3.83;;
18280;SDS011;9266;51.132;17.062;2022-08-21T10:59:15;6.10;;;3.70;;
18280;SDS011;9266;51.132;17.062;2022-08-21T11:01:54;5.97;;;3.93;;
18280;SDS011;9266;51.132;17.062;2022-08-21T11:04:32;4.67;;;3.53;;
18280;SDS011;9266;51.132;17.062;2022-08-21T11:07:16;5.20;;;3.60;;
18280;SDS011;9266;51.132;17.062;2022-08-21T11:10:08;5.53;;;3.60;;
18280;SDS011;9266;51.132;17.062;2022-08-21T11:12:46;4.13;;;3.60;;
18280;SDS011;9266;51.132;17.062;2022-08-21T11:15:47;5.60;;;3.80;;
18280;SDS011;9266;51.132;17.062;2022-08-21T11:18:38;6.70;;;4.27;;
18280;SDS011;9266;51.132;17.062;2022-08-21T11:21:32;5.97;;;3.63;;
18280;SDS011;9266;51.132;17.062;2022-08-21T11:24:12;3.93;;;3.50;;
18280;SDS011;9266;51.132;17.062;2022-08-21T11:26:56;6.30;;;4.60;;
18280;SDS011;9266;51.132;17.062;2022-08-21T11:29:28;4.53;;;3.60;;
18280;SDS011;9266;51.132;17.062;2022-08-21T11:32:01;7.17;;;4.10;;
18280;SDS011;9266;51.132;17.062;2022-08-21T11:34:52;7.37;;;4.47;;
18280;SDS011;9266;51.132;17.062;2022-08-21T11:37:45;6.67;;;4.13;;
18280;SDS011;9266;51.132;17.062;2022-08-21T11:40:29;6.20;;;4.30;;
18280;SDS011;9266;51.132;17.062;2022-08-21T11:43:16;5.50;;;3.97;;
18280;SDS011;9266;51.132;17.062;2022-08-21T11:45:56;7.87;;;4.57;;
18280;SDS011;9266;51.132;17.062;2022-08-21T11:48:37;5.23;;;4.17;;
18280;SDS011;9266;51.132;17.062;2022-08-21T11:51:13;6.97;;;4.63;;
18280;SDS011;9266;51.132;17.062;2022-08-21T11:53:45;4.60;;;3.80;;
18280;SDS011;9266;51.132;17.062;2022-08-21T11:56:37;5.87;;;3.87;;
18280;SDS011;9266;51.132;17.062;2022-08-21T11:59:30;6.17;;;4.33;;
18280;SDS011;9266;51.132;17.062;2022-08-21T12:04:42;5.17;;;3.60;;
18280;SDS011;9266;51.132;17.062;2022-08-21T12:07:12;6.07;;;4.00;;
18280;SDS011;9266;51.132;17.062;2022-08-21T12:09:58;5.73;;;4.20;;
18280;SDS011;9266;51.132;17.062;2022-08-21T12:12:30;5.67;;;4.10;;
18280;SDS011;9266;51.132;17.062;2022-08-21T12:15:07;5.63;;;4.17;;
18280;SDS011;9266;51.132;17.062;2022-08-21T12:18:20;6.80;;;4.33;;
18280;SDS011;9266;51.132;17.062;2022-08-21T12:20:58;4.37;;;3.97;;
18280;SDS011;9266;51.132;17.062;2022-08-21T12:23:32;5.27;;;4.50;;
18280;SDS011;9266;51.132;17.062;2022-08-21T12:29:15;6.10;;;4.23;;
18280;SDS011;9266;51.132;17.062;2022-08-21T12:32:00;4.83;;;3.83;;
18280;SDS011;9266;51.132;17.062;2022-08-21T12:34:52;7.03;;;4.40;;
18280;SDS011;9266;51.132;17.062;2022-08-21T12:37:34;6.20;;;4.30;;
18280;SDS011;9266;51.132;17.062;2022-08-21T12:40:19;5.30;;;4.00;;
18280;SDS011;9266;51.132;17.062;2022-08-21T12:42:57;7.50;;;4.90;;
18280;SDS011;9266;51.132;17.062;2022-08-21T12:45:34;5.00;;;3.90;;
18280;SDS011;9266;51.132;17.062;2022-08-21T12:48:09;7.73;;;4.27;;
18280;SDS011;9266;51.132;17.062;2022-08-21T12:50:48;7.20;;;4.77;;
18280;SDS011;9266;51.132;17.062;2022-08-21T12:53:30;5.27;;;4.60;;
18280;SDS011;9266;51.132;17.062;2022-08-21T12:56:12;5.40;;;4.40;;
18280;SDS011;9266;51.132;17.062;2022-08-21T12:58:45;5.23;;;4.40;;
18280;SDS011;9266;51.132;17.062;2022-08-21T13:01:17;5.90;;;4.77;;
18280;SDS011;9266;51.132;17.062;2022-08-21T13:03:49;6.33;;;4.70;;
18280;SDS011;9266;51.132;17.062;2022-08-21T13:06:25;6.27;;;4.47;;
18280;SDS011;9266;51.132;17.062;2022-08-21T13:08:58;4.93;;;4.40;;
18280;SDS011;9266;51.132;17.062;2022-08-21T13:11:35;6.20;;;4.47;;
18280;SDS011;9266;51.132;17.062;2022-08-21T13:14:05;6.03;;;4.27;;
18280;SDS011;9266;51.132;17.062;2022-08-21T13:16:39;5.63;;;4.77;;
18280;SDS011;9266;51.132;17.062;2022-08-21T13:19:11;6.53;;;4.73;;
18280;SDS011;9266;51.132;17.062;2022-08-21T13:21:43;8.87;;;4.63;;
18280;SDS011;9266;51.132;17.062;2022-08-21T13:24:18;5.67;;;4.47;;
18280;SDS011;9266;51.132;17.062;2022-08-21T13:26:47;5.77;;;4.80;;
18280;SDS011;9266;51.132;17.062;2022-08-21T13:29:22;6.93;;;4.50;;
18280;SDS011;9266;51.132;17.062;2022-08-21T13:31:58;5.50;;;4.20;;
18280;SDS011;9266;51.132;17.062;2022-08-21T13:34:57;5.60;;;4.47;;
18280;SDS011;9266;51.132;17.062;2022-08-21T13:37:30;5.07;;;4.13;;
18280;SDS011;9266;51.132;17.062;2022-08-21T13:40:28;5.77;;;4.47;;
18280;SDS011;9266;51.132;17.062;2022-08-21T13:43:37;6.73;;;4.03;;
18280;SDS011;9266;51.132;17.062;2022-08-21T13:53:22;6.03;;;4.67;;
18280;SDS011;9266;51.132;17.062;2022-08-21T13:56:41;6.87;;;4.37;;
18280;SDS011;9266;51.132;17.062;2022-08-21T14:02:29;5.93;;;4.30;;
18280;SDS011;9266;51.132;17.062;2022-08-21T14:02:56;5.67;;;4.40;;
18280;SDS011;9266;51.132;17.062;2022-08-21T14:09:39;5.20;;;4.10;;
18280;SDS011;9266;51.132;17.062;2022-08-21T14:12:46;6.03;;;4.40;;
18280;SDS011;9266;51.132;17.062;2022-08-21T14:19:07;4.93;;;4.47;;
18280;SDS011;9266;51.132;17.062;2022-08-21T14:22:49;5.50;;;4.50;;
18280;SDS011;9266;51.132;17.062;2022-08-21T14:29:03;6.40;;;4.67;;
18280;SDS011;9266;51.132;17.062;2022-08-21T14:32:52;5.07;;;4.57;;
18280;SDS011;9266;51.132;17.062;2022-08-21T14:37:56;5.03;;;4.53;;
18280;SDS011;9266;51.132;17.062;2022-08-21T14:49:46;5.50;;;4.47;;
18280;SDS011;9266;51.132;17.062;2022-08-21T14:53:02;6.67;;;4.37;;
18280;SDS011;9266;51.132;17.062;2022-08-21T14:59:36;5.30;;;4.80;;
18280;SDS011;9266;51.132;17.062;2022-08-21T15:02:06;6.20;;;4.73;;
18280;SDS011;9266;51.132;17.062;2022-08-21T15:04:34;5.07;;;4.47;;
18280;SDS011;9266;51.132;17.062;2022-08-21T15:07:01;5.97;;;4.83;;
18280;SDS011;9266;51.132;17.062;2022-08-21T15:09:29;6.17;;;4.40;;
18280;SDS011;9266;51.132;17.062;2022-08-21T15:11:57;4.83;;;4.30;;
18280;SDS011;9266;51.132;17.062;2022-08-21T15:14:28;5.30;;;4.77;;
18280;SDS011;9266;51.132;17.062;2022-08-21T15:16:57;6.33;;;5.30;;
18280;SDS011;9266;51.132;17.062;2022-08-21T15:19:25;5.50;;;5.00;;
18280;SDS011;9266;51.132;17.062;2022-08-21T15:21:54;5.47;;;4.70;;
18280;SDS011;9266;51.132;17.062;2022-08-21T15:24:21;7.47;;;5.30;;
18280;SDS011;9266;51.132;17.062;2022-08-21T15:26:49;7.07;;;5.37;;
18280;SDS011;9266;51.132;17.062;2022-08-21T15:29:19;5.70;;;5.20;;
18280;SDS011;9266;51.132;17.062;2022-08-21T15:31:50;5.70;;;5.10;;
18280;SDS011;9266;51.132;17.062;2022-08-21T15:34:19;6.70;;;5.23;;
18280;SDS011;9266;51.132;17.062;2022-08-21T15:36:52;6.13;;;5.37;;
18280;SDS011;9266;51.132;17.062;2022-08-21T15:39:19;5.73;;;5.03;;
18280;SDS011;9266;51.132;17.062;2022-08-21T15:41:46;6.87;;;4.53;;
18280;SDS011;9266;51.132;17.062;2022-08-21T15:44:14;5.80;;;5.10;;
18280;SDS011;9266;51.132;17.062;2022-08-21T15:46:49;5.67;;;5.17;;
18280;SDS011;9266;51.132;17.062;2022-08-21T15:49:16;7.00;;;5.57;;
18280;SDS011;9266;51.132;17.062;2022-08-21T15:51:43;7.10;;;5.50;;
18280;SDS011;9266;51.132;17.062;2022-08-21T15:54:12;6.90;;;5.03;;
18280;SDS011;9266;51.132;17.062;2022-08-21T15:56:39;5.77;;;5.10;;
18280;SDS011;9266;51.132;17.062;2022-08-21T15:59:12;6.93;;;5.60;;
18280;SDS011;9266;51.132;17.062;2022-08-21T16:01:41;6.67;;;6.00;;